Time;durP1;ratioP1;P1;durP2;ratioP2;P2;SDS_P1;SDS_P2;PMS_P1;PMS_P2;Temp;Humidity;BMP_temperature;BMP_pressure;BME280_temperature;BME280_humidity;BME280_pressure;Samples;Min_cycle;Max_cycle;Signal;HPM_P1;HPM_P2
2022/07/05 00:00:59;;;;;;;5.20;5.00;;;;;;;16.03;85.49;101981.75;6017650;23;20022;-67
2022/07/05 00:03:26;;;;;;;6.93;6.63;;;;;;;15.73;84.71;101949.88;6014875;23;20018;-69
2022/07/05 00:05:53;;;;;;;5.32;5.07;;;;;;;15.84;85.99;101979.28;6014083;23;20016;-69
2022/07/05 00:08:20;;;;;;;6.15;5.85;;;;;;;15.89;86.69;101989.59;6018862;23;20076;-68
2022/07/05 00:10:47;;;;;;;5.00;4.80;;;;;;;15.86;86.04;101961.53;6024231;23;20007;-69
2022/07/05 00:13:14;;;;;;;4.80;4.60;;;;;;;15.80;86.49;102009.50;6036096;23;20017;-71
2022/07/05 00:15:41;;;;;;;5.03;4.72;;;;;;;15.44;86.80;101919.66;6024397;23;20056;-70
2022/07/05 00:18:08;;;;;;;4.90;4.70;;;;;;;15.69;87.79;101972.13;6030354;23;20019;-69
2022/07/05 00:20:34;;;;;;;6.38;6.07;;;;;;;15.65;87.55;101959.97;6022795;23;20035;-71
2022/07/05 00:23:00;;;;;;;4.93;4.72;;;;;;;15.60;87.72;102002.59;5995624;23;20033;-70
2022/07/05 00:25:27;;;;;;;6.43;6.13;;;;;;;15.19;88.45;101918.28;6022690;23;20767;-68
2022/07/05 00:27:53;;;;;;;5.15;4.85;;;;;;;15.55;88.04;101983.44;6025670;23;20078;-68
2022/07/05 00:30:20;;;;;;;6.20;5.90;;;;;;;15.32;87.77;101940.53;6020670;23;20369;-66
2022/07/05 00:32:46;;;;;;;5.18;4.97;;;;;;;15.48;88.09;101972.31;6028414;23;20026;-69
2022/07/05 00:35:16;;;;;;;4.80;4.60;;;;;;;15.46;88.66;101987.41;6024374;23;20044;-71
2022/07/05 00:37:43;;;;;;;4.85;4.65;;;;;;;15.36;88.46;101957.09;6036320;23;20054;-71
2022/07/05 00:40:09;;;;;;;4.93;4.72;;;;;;;14.71;88.59;101846.75;6023260;23;20234;-70
2022/07/05 00:42:36;;;;;;;5.30;5.10;;;;;;;15.43;89.51;101978.78;6020833;23;20043;-68
2022/07/05 00:45:04;;;;;;;4.93;4.72;;;;;;;15.16;89.94;101963.41;6031757;23;20018;-68
2022/07/05 00:47:30;;;;;;;6.70;6.40;;;;;;;15.28;91.16;101954.84;6021835;23;20022;-68
2022/07/05 00:49:57;;;;;;;5.30;5.00;;;;;;;15.26;91.80;101961.16;6027248;23;20043;-67
2022/07/05 00:52:23;;;;;;;6.30;6.00;;;;;;;15.22;91.68;102010.69;5990903;23;20011;-69
2022/07/05 00:54:50;;;;;;;4.70;4.50;;;;;;;15.07;90.55;101943.56;6024196;23;20014;-69
2022/07/05 00:57:20;;;;;;;4.82;4.63;;;;;;;15.22;90.33;101962.25;6027196;23;20147;-65
2022/07/05 00:59:47;;;;;;;4.65;4.45;;;;;;;15.21;90.78;101974.59;6018544;23;20011;-65
2022/07/05 01:02:14;;;;;;;5.13;4.93;;;;;;;14.94;90.30;101931.94;6024227;23;20011;-67
2022/07/05 01:04:46;;;;;;;4.95;4.75;;;;;;;15.18;89.65;101977.41;6019680;23;20015;-65
2022/07/05 01:07:13;;;;;;;5.13;4.82;;;;;;;15.07;89.93;101951.50;6024210;23;20038;-65
2022/07/05 01:09:39;;;;;;;4.82;4.63;;;;;;;15.18;88.90;102027.66;6024679;23;20038;-69
2022/07/05 01:12:08;;;;;;;5.30;5.00;;;;;;;15.08;89.33;101970.88;6023686;23;20041;-69
2022/07/05 01:14:35;;;;;;;5.28;5.07;;;;;;;14.88;89.68;101933.09;6031508;23;20015;-69
2022/07/05 01:17:01;;;;;;;5.00;4.80;;;;;;;14.97;89.77;101958.19;6033771;23;20025;-69
2022/07/05 01:19:28;;;;;;;6.50;6.20;;;;;;;15.05;89.88;102003.59;6016875;23;20403;-67
2022/07/05 01:21:56;;;;;;;5.05;4.85;;;;;;;14.87;89.42;101936.66;6029751;23;20086;-69
2022/07/05 01:24:23;;;;;;;5.97;5.68;;;;;;;15.05;89.19;101969.22;6016667;23;20263;-68
2022/07/05 01:26:50;;;;;;;4.80;4.60;;;;;;;14.88;89.63;101948.09;6023792;23;20019;-67
2022/07/05 01:29:17;;;;;;;5.35;5.10;;;;;;;14.96;90.18;101956.50;6018828;23;20639;-68
2022/07/05 01:31:44;;;;;;;4.85;4.65;;;;;;;14.73;90.42;101931.22;6023260;23;20023;-68
2022/07/05 01:34:11;;;;;;;5.28;5.07;;;;;;;14.84;91.22;101955.31;6036058;23;20399;-69
2022/07/05 01:36:38;;;;;;;5.35;5.15;;;;;;;14.81;91.94;101951.97;6029370;23;20033;-68
2022/07/05 01:39:07;;;;;;;4.80;4.60;;;;;;;14.45;91.29;101936.97;6024139;23;20089;-68
2022/07/05 01:41:33;;;;;;;6.15;5.85;;;;;;;14.80;91.07;101956.41;6001230;23;20097;-68
2022/07/05 01:44:00;;;;;;;5.10;4.80;;;;;;;14.54;92.12;101928.59;6024433;23;20019;-68
2022/07/05 01:46:32;;;;;;;6.60;6.30;;;;;;;14.80;92.92;101952.91;6025111;23;20029;-68
2022/07/05 01:49:03;;;;;;;5.00;4.80;;;;;;;14.65;92.46;101949.22;5996247;23;20051;-68
2022/07/05 01:51:34;;;;;;;6.90;6.57;;;;;;;14.46;93.00;101910.47;6022180;23;20108;-69
2022/07/05 01:54:01;;;;;;;4.85;4.65;;;;;;;14.73;92.57;101949.69;6028293;23;20018;-69
2022/07/05 01:56:27;;;;;;;6.35;6.05;;;;;;;14.83;91.74;101963.31;6023387;23;20046;-67
2022/07/05 01:58:55;;;;;;;5.10;4.90;;;;;;;14.84;92.02;101960.59;5999656;23;20015;-70
2022/07/05 02:01:36;;;;;;;6.05;5.75;;;;;;;14.92;92.48;102021.03;6022747;23;20081;-68
2022/07/05 02:04:06;;;;;;;4.97;4.78;;;;;;;14.66;91.92;101904.25;6021404;23;20073;-68
2022/07/05 02:06:33;;;;;;;5.95;5.65;;;;;;;15.09;91.43;101973.44;5996365;23;20949;-67
2022/07/05 02:09:00;;;;;;;4.90;4.70;;;;;;;14.93;90.57;101927.56;6017009;23;20094;-68
2022/07/05 02:11:27;;;;;;;6.70;6.40;;;;;;;14.50;89.95;101859.22;6021096;23;20074;-67
2022/07/05 02:13:53;;;;;;;4.90;4.70;;;;;;;15.13;90.78;101972.38;6026444;23;20026;-66
2022/07/05 02:16:24;;;;;;;4.82;4.63;;;;;;;13.86;90.88;101752.38;6024443;23;20094;-67
2022/07/05 02:18:51;;;;;;;5.20;4.90;;;;;;;15.08;91.05;101955.88;6024692;23;20026;-68
2022/07/05 02:21:18;;;;;;;5.75;5.50;;;;;;;14.70;91.31;101903.16;5987899;23;20015;-68
2022/07/05 02:23:44;;;;;;;4.75;4.55;;;;;;;14.82;91.75;101936.03;6020506;23;20191;-67
2022/07/05 02:26:11;;;;;;;4.80;4.60;;;;;;;14.82;92.83;101943.97;6022230;23;20011;-68
2022/07/05 02:28:38;;;;;;;4.88;4.68;;;;;;;14.29;92.37;101874.34;6029343;23;20089;-68
2022/07/05 02:31:05;;;;;;;4.80;4.60;;;;;;;14.68;92.75;101955.22;6029165;23;20021;-68
2022/07/05 02:33:31;;;;;;;6.25;5.95;;;;;;;14.59;93.85;101960.94;6008899;23;20034;-67
2022/07/05 02:36:05;;;;;;;4.93;4.72;;;;;;;14.54;95.16;101960.31;5998055;23;20065;-67
2022/07/05 02:38:32;;;;;;;6.15;5.85;;;;;;;14.14;100.00;101897.06;6018581;23;20280;-69
2022/07/05 02:40:58;;;;;;;4.78;4.57;;;;;;;14.46;97.08;101954.53;6020100;23;20033;-68
2022/07/05 02:43:25;;;;;;;5.97;5.68;;;;;;;14.34;97.46;101940.97;5995140;23;20023;-67
2022/07/05 02:45:51;;;;;;;4.88;4.68;;;;;;;14.42;98.91;101972.31;6004128;23;20089;-68
2022/07/05 02:48:18;;;;;;;5.60;5.32;;;;;;;14.50;99.21;101998.38;6024846;23;20094;-66
2022/07/05 02:50:45;;;;;;;4.90;4.70;;;;;;;14.09;99.03;101925.47;6025304;23;20035;-69
2022/07/05 02:53:11;;;;;;;4.80;4.60;;;;;;;14.70;98.55;101990.34;6016727;23;20081;-68
2022/07/05 02:55:38;;;;;;;4.97;4.78;;;;;;;14.55;97.18;101951.44;6019748;23;20125;-68
2022/07/05 02:58:04;;;;;;;5.10;4.80;;;;;;;14.76;96.86;102005.91;6020973;23;20090;-68
2022/07/05 03:00:31;;;;;;;6.07;5.78;;;;;;;14.78;96.78;102010.28;6015622;23;20351;-69
2022/07/05 03:02:58;;;;;;;4.90;4.70;;;;;;;14.77;96.65;102006.75;6012665;23;20021;-67
2022/07/05 03:05:25;;;;;;;6.10;5.80;;;;;;;14.60;96.31;101949.47;6014095;23;20452;-64
2022/07/05 03:07:51;;;;;;;4.78;4.53;;;;;;;14.65;96.07;101954.50;5994470;23;20487;-69
2022/07/05 03:10:18;;;;;;;5.00;4.80;;;;;;;14.55;96.99;101944.38;6020222;23;20398;-70
2022/07/05 03:12:44;;;;;;;4.82;4.63;;;;;;;14.33;98.80;101970.97;6000134;23;20037;-69
2022/07/05 03:15:12;;;;;;;5.00;4.80;;;;;;;14.54;99.30;101955.03;6023410;23;20046;-68
2022/07/05 03:17:39;;;;;;;5.00;4.80;;;;;;;14.63;99.01;101967.78;6024633;23;20022;-67
2022/07/05 03:20:06;;;;;;;5.00;4.80;;;;;;;14.58;100.00;101969.81;6023691;23;20050;-65
2022/07/05 03:22:32;;;;;;;7.53;6.88;;;;;;;14.51;100.00;102013.28;6019425;23;20463;-64
2022/07/05 03:24:59;;;;;;;5.35;5.10;;;;;;;14.07;100.00;101907.97;6011394;23;20022;-65
2022/07/05 03:27:25;;;;;;;6.68;6.38;;;;;;;14.40;100.00;101979.47;6015318;23;20073;-65
2022/07/05 03:29:51;;;;;;;5.18;4.97;;;;;;;14.34;100.00;101969.19;5994238;23;20015;-66
2022/07/05 03:32:18;;;;;;;5.57;5.35;;;;;;;14.12;100.00;101967.56;6018385;23;20022;-65
2022/07/05 03:34:44;;;;;;;4.70;4.50;;;;;;;13.93;100.00;101941.16;6021282;23;20014;-65
2022/07/05 03:37:11;;;;;;;5.00;4.80;;;;;;;14.27;100.00;102002.97;6024767;23;20051;-67
2022/07/05 03:39:38;;;;;;;5.10;4.90;;;;;;;14.03;100.00;101972.41;6016653;23;20561;-65
2022/07/05 03:42:05;;;;;;;4.80;4.60;;;;;;;14.29;100.00;102002.88;6025433;23;20477;-65
2022/07/05 03:44:32;;;;;;;6.45;6.15;;;;;;;14.39;100.00;102004.13;6017881;23;20027;-66
2022/07/05 03:46:59;;;;;;;5.05;4.85;;;;;;;14.44;100.00;102078.75;6018926;23;20023;-66
2022/07/05 03:49:26;;;;;;;6.25;5.95;;;;;;;14.43;100.00;101981.09;6027148;23;20269;-65
2022/07/05 03:51:52;;;;;;;5.00;4.80;;;;;;;14.52;100.00;101988.59;6029083;23;20074;-66
2022/07/05 03:54:20;;;;;;;6.45;6.15;;;;;;;14.49;100.00;101979.03;6028239;23;20026;-64
2022/07/05 03:56:47;;;;;;;5.30;5.00;;;;;;;14.48;100.00;101992.31;6029044;23;20019;-67
2022/07/05 03:59:13;;;;;;;4.93;4.72;;;;;;;13.39;99.56;101849.56;6024941;23;20021;-66
2022/07/05 04:01:40;;;;;;;5.13;4.93;;;;;;;14.71;98.52;102007.06;6027699;23;20007;-68
2022/07/05 04:04:06;;;;;;;4.82;4.63;;;;;;;13.92;98.62;101886.66;6025959;23;20376;-66
2022/07/05 04:06:33;;;;;;;5.80;5.50;;;;;;;14.65;99.67;102010.84;6001223;23;20252;-66
2022/07/05 04:09:00;;;;;;;4.82;4.60;;;;;;;14.64;99.48;102001.22;6021823;23;20016;-66
2022/07/05 04:11:26;;;;;;;6.18;5.88;;;;;;;14.59;99.83;101995.28;6022687;23;20117;-69
2022/07/05 04:13:53;;;;;;;4.95;4.75;;;;;;;14.80;99.62;102006.63;6026775;23;20027;-66
2022/07/05 04:16:20;;;;;;;6.40;6.10;;;;;;;15.38;98.51;102034.59;5994055;23;20027;-66
2022/07/05 04:18:46;;;;;;;5.10;4.82;;;;;;;15.94;94.53;102038.72;6016918;23;20015;-66
2022/07/05 04:21:13;;;;;;;4.90;4.70;;;;;;;16.31;89.98;101994.34;6009808;23;20098;-69
2022/07/05 04:23:39;;;;;;;5.45;5.25;;;;;;;17.02;85.93;102045.19;6024307;23;20041;-69
2022/07/05 04:26:06;;;;;;;4.90;4.70;;;;;;;17.62;83.32;102044.28;6028568;23;20015;-66
2022/07/05 04:28:32;;;;;;;6.35;6.05;;;;;;;18.20;80.35;102066.44;6021303;23;20094;-66
2022/07/05 04:30:59;;;;;;;5.43;5.13;;;;;;;18.79;77.47;102072.44;6024324;23;20170;-66
2022/07/05 04:33:26;;;;;;;6.50;6.20;;;;;;;19.26;74.48;102041.84;6022883;23;20047;-67
2022/07/05 04:35:52;;;;;;;5.30;5.10;;;;;;;19.46;72.01;101997.88;5998288;23;20034;-66
2022/07/05 04:38:19;;;;;;;6.45;6.15;;;;;;;20.06;70.56;102108.28;6017532;23;20476;-69
2022/07/05 04:40:46;;;;;;;5.55;5.30;;;;;;;20.45;68.13;102181.13;6029115;23;20089;-70
2022/07/05 04:43:12;;;;;;;6.25;5.95;;;;;;;21.09;66.27;102292.28;6015532;23;20025;-67
2022/07/05 04:45:39;;;;;;;5.32;5.13;;;;;;;21.35;63.88;102193.38;6027165;23;20029;-66
2022/07/05 04:48:05;;;;;;;5.60;5.30;;;;;;;21.77;61.82;102189.34;6000652;23;20622;-67
2022/07/05 04:50:32;;;;;;;7.32;6.95;;;;;;;22.14;60.88;102183.00;6026236;23;20041;-70
2022/07/05 04:52:58;;;;;;;5.40;5.20;;;;;;;21.67;61.14;102173.16;6026392;23;20033;-67
2022/07/05 04:55:25;;;;;;;6.32;6.03;;;;;;;21.65;61.69;102139.50;6022124;23;20100;-67
2022/07/05 04:57:51;;;;;;;5.68;5.47;;;;;;;21.94;60.41;102115.03;6027216;23;20096;-67
2022/07/05 05:00:17;;;;;;;5.60;5.32;;;;;;;22.16;59.56;102147.13;6021932;23;20343;-71
2022/07/05 05:02:44;;;;;;;5.45;5.15;;;;;;;22.47;58.64;102158.97;6015668;23;20031;-67
2022/07/05 05:05:10;;;;;;;6.10;5.80;;;;;;;22.91;56.85;102185.78;6002645;23;20078;-67
2022/07/05 05:07:41;;;;;;;5.70;5.40;;;;;;;22.69;54.26;102106.38;5988885;23;20181;-67
2022/07/05 05:10:08;;;;;;;5.90;5.60;;;;;;;22.45;55.16;102104.75;5998248;23;20254;-67
2022/07/05 05:12:34;;;;;;;5.60;5.40;;;;;;;21.98;56.01;102074.56;5997639;23;20050;-67
2022/07/05 05:15:02;;;;;;;6.00;5.70;;;;;;;21.91;58.31;102055.50;5994555;23;20036;-67
2022/07/05 05:17:41;;;;;;;5.55;5.35;;;;;;;21.77;57.58;102037.03;5972487;23;20423;-67
2022/07/05 05:20:13;;;;;;;6.60;6.30;;;;;;;20.74;60.81;102044.81;5990770;23;20094;-67
2022/07/05 05:22:40;;;;;;;5.95;5.65;;;;;;;20.64;61.64;102023.28;5999067;23;20038;-67
2022/07/05 05:25:08;;;;;;;5.80;5.50;;;;;;;20.75;62.29;102029.66;5964110;23;20024;-67
2022/07/05 05:27:35;;;;;;;7.15;6.75;;;;;;;21.17;61.15;101979.34;5991347;23;20023;-69
2022/07/05 05:30:02;;;;;;;5.85;5.55;;;;;;;22.00;58.98;102012.97;6001576;23;20027;-71
2022/07/05 05:32:28;;;;;;;5.80;5.50;;;;;;;22.32;56.66;101972.13;5972127;23;20227;-69
2022/07/05 05:34:55;;;;;;;5.78;5.53;;;;;;;22.83;56.87;101999.06;5996610;23;20022;-67
2022/07/05 05:37:21;;;;;;;6.80;6.28;;;;;;;23.61;53.82;102285.50;5996308;23;20394;-67
2022/07/05 05:39:48;;;;;;;6.25;5.95;;;;;;;23.40;52.50;102243.41;5976702;23;20103;-70
2022/07/05 05:42:14;;;;;;;6.10;5.80;;;;;;;22.37;53.97;102163.34;5999194;23;20075;-67
2022/07/05 05:44:40;;;;;;;5.60;5.30;;;;;;;22.54;57.00;102215.50;5990407;23;20045;-67
2022/07/05 05:47:07;;;;;;;6.43;6.13;;;;;;;22.80;54.45;102129.63;5983656;23;20031;-67
2022/07/05 05:49:40;;;;;;;6.07;5.78;;;;;;;23.42;53.01;102061.09;5997415;23;20023;-67
2022/07/05 05:52:06;;;;;;;6.22;5.85;;;;;;;23.29;51.71;102039.84;5967112;23;20082;-67
2022/07/05 05:54:32;;;;;;;7.13;6.82;;;;;;;22.83;52.16;101988.34;5996380;23;20465;-67
2022/07/05 05:56:59;;;;;;;6.00;5.70;;;;;;;23.74;51.05;102264.75;5990033;23;20038;-67
2022/07/05 05:59:25;;;;;;;6.95;6.55;;;;;;;24.27;48.66;102237.06;5988936;23;20184;-67
2022/07/05 06:01:52;;;;;;;6.13;5.82;;;;;;;24.30;48.95;102247.53;5984848;23;20021;-70
2022/07/05 06:04:18;;;;;;;5.88;5.57;;;;;;;23.61;51.39;102222.00;6004074;23;20025;-70
2022/07/05 06:06:45;;;;;;;5.90;5.60;;;;;;;24.17;49.96;102134.22;6011489;23;20015;-67
2022/07/05 06:09:12;;;;;;;5.88;5.57;;;;;;;25.04;47.39;102051.22;6044047;23;20031;-68
2022/07/05 06:11:40;;;;;;;6.03;5.65;;;;;;;25.29;45.76;102360.69;5999950;23;20007;-71
2022/07/05 06:14:07;;;;;;;5.82;5.53;;;;;;;25.85;45.46;102314.38;6028197;23;20051;-66
2022/07/05 06:16:33;;;;;;;7.05;6.75;;;;;;;25.90;42.93;102267.38;6015732;23;20085;-69
2022/07/05 06:19:00;;;;;;;6.40;6.03;;;;;;;25.93;44.20;102296.72;6001286;23;20111;-66
2022/07/05 06:21:26;;;;;;;7.32;6.93;;;;;;;25.93;44.79;102418.63;6021698;23;20007;-67
2022/07/05 06:23:53;;;;;;;5.88;5.57;;;;;;;25.69;44.89;102303.31;6024832;23;20068;-68
2022/07/05 06:26:19;;;;;;;6.32;6.03;;;;;;;25.44;46.25;102283.22;6016590;23;20030;-67
2022/07/05 06:28:46;;;;;;;6.40;6.00;;;;;;;25.32;45.41;102058.56;6015754;23;20015;-67
2022/07/05 06:31:12;;;;;;;6.13;5.72;;;;;;;25.14;45.80;102071.84;6021964;23;20127;-67
2022/07/05 06:33:39;;;;;;;6.00;5.70;;;;;;;24.57;48.18;102032.25;6014769;23;20027;-66
2022/07/05 06:36:05;;;;;;;5.90;5.60;;;;;;;23.78;49.12;101987.41;5993076;23;20035;-68
2022/07/05 06:38:32;;;;;;;7.43;7.05;;;;;;;23.58;50.93;102001.69;6015441;23;20142;-67
2022/07/05 06:41:01;;;;;;;5.97;5.68;;;;;;;22.29;53.70;101943.78;6018806;23;20086;-70
2022/07/05 06:43:27;;;;;;;10.88;7.32;;;;;;;22.59;54.44;101993.06;6017447;23;20018;-67
2022/07/05 06:45:55;;;;;;;6.32;5.93;;;;;;;22.27;54.68;101981.38;5989497;23;20043;-67
2022/07/05 06:48:22;;;;;;;8.23;7.82;;;;;;;21.33;55.54;101851.69;6016606;23;20082;-71
2022/07/05 06:50:48;;;;;;;5.97;5.60;;;;;;;22.36;55.02;101993.13;5990013;23;20265;-68
2022/07/05 06:53:15;;;;;;;6.00;5.70;;;;;;;22.26;54.96;101982.31;6016947;23;20483;-67
2022/07/05 06:55:44;;;;;;;5.80;5.50;;;;;;;22.35;54.44;101991.44;6019836;23;20022;-68
2022/07/05 06:58:21;;;;;;;6.47;6.18;;;;;;;22.22;54.61;101975.50;6019014;23;20127;-67
2022/07/05 07:00:47;;;;;;;5.90;5.50;;;;;;;22.26;53.32;101952.91;6025518;23;20033;-71
2022/07/05 07:03:34;;;;;;;7.45;6.85;;;;;;;22.59;53.01;102043.88;6015877;23;20019;-70
2022/07/05 07:06:21;;;;;;;6.15;5.85;;;;;;;22.00;53.04;101986.22;6024926;23;20140;-69
2022/07/05 07:11:32;;;;;;;7.25;6.78;;;;;;;21.58;52.52;101962.78;6015571;23;20011;-66
2022/07/05 07:13:59;;;;;;;6.15;5.65;;;;;;;21.74;55.96;101989.16;6024085;23;20018;-67
2022/07/05 07:16:25;;;;;;;7.80;7.40;;;;;;;22.01;55.00;102001.28;5991130;23;20113;-69
2022/07/05 07:18:53;;;;;;;5.93;5.63;;;;;;;21.87;54.15;101986.34;6020990;23;20034;-71
2022/07/05 07:21:36;;;;;;;5.55;5.25;;;;;;;22.24;53.10;102003.00;6018759;23;20449;-69
2022/07/05 07:24:02;;;;;;;7.00;6.53;;;;;;;22.48;53.00;101996.63;6025996;23;20154;-67
2022/07/05 07:26:29;;;;;;;6.70;6.30;;;;;;;21.60;50.89;101827.28;5995540;23;20023;-67
2022/07/05 07:28:55;;;;;;;6.00;5.63;;;;;;;22.80;50.45;101998.47;6026955;23;20026;-67
2022/07/05 07:31:22;;;;;;;6.28;5.97;;;;;;;22.58;51.64;101980.66;6027903;23;20019;-69
2022/07/05 07:33:48;;;;;;;5.50;5.20;;;;;;;22.49;49.95;101996.50;5991026;23;20180;-67
2022/07/05 07:36:15;;;;;;;5.63;5.30;;;;;;;22.58;49.89;101997.56;6022703;23;20124;-67
2022/07/05 07:38:42;;;;;;;5.65;5.35;;;;;;;22.42;49.60;101994.44;5990291;23;20091;-67
2022/07/05 07:41:08;;;;;;;5.85;5.55;;;;;;;22.15;50.08;102002.84;6029265;23;20258;-67
2022/07/05 07:43:35;;;;;;;6.70;6.40;;;;;;;22.54;50.43;101996.13;6013202;23;20031;-69
2022/07/05 07:46:01;;;;;;;5.40;5.20;;;;;;;22.85;49.35;102005.13;5996839;23;20048;-67
2022/07/05 07:48:28;;;;;;;6.85;6.55;;;;;;;22.92;47.94;102002.78;6024152;23;20018;-67
2022/07/05 07:50:55;;;;;;;6.22;5.57;;;;;;;22.27;48.58;101972.47;6023242;23;20029;-66
2022/07/05 07:53:22;;;;;;;6.75;6.35;;;;;;;22.55;49.02;101989.81;6031504;23;20019;-70
2022/07/05 07:55:48;;;;;;;5.68;5.38;;;;;;;22.67;49.59;102106.53;6025208;23;20018;-67
2022/07/05 07:58:15;;;;;;;5.50;5.20;;;;;;;22.07;48.67;101955.34;6022665;23;20079;-69
2022/07/05 08:00:42;;;;;;;5.90;5.60;;;;;;;23.02;46.39;102094.78;6004637;23;20046;-67
2022/07/05 08:03:08;;;;;;;5.78;5.28;;;;;;;22.63;48.90;102075.66;6021001;23;20011;-67
2022/07/05 08:05:35;;;;;;;6.35;6.05;;;;;;;23.13;47.57;102055.53;5992319;23;20099;-67
2022/07/05 08:08:02;;;;;;;5.53;5.22;;;;;;;22.86;46.84;102016.69;5997045;23;20256;-67
2022/07/05 08:10:28;;;;;;;7.22;6.78;;;;;;;22.82;46.76;102013.41;5996293;23;20423;-70
2022/07/05 08:12:54;;;;;;;5.60;5.30;;;;;;;22.52;46.25;101997.22;5992163;23;20408;-67
2022/07/05 08:15:21;;;;;;;6.47;6.18;;;;;;;22.39;46.58;101962.59;5994364;23;20043;-67
2022/07/05 08:23:28;;;;;;;5.82;5.53;;;;;;;22.65;47.91;102014.81;5990719;23;20386;-67
2022/07/05 08:26:00;;;;;;;;;;;;;;;23.13;44.54;102018.03;5905559;23;20023;-71
2022/07/05 08:28:28;;;;;;;6.53;6.22;;;;;;;22.92;44.71;101976.00;5978451;23;20497;-70
2022/07/05 08:30:54;;;;;;;5.53;5.22;;;;;;;22.47;45.27;101915.53;5998105;23;20015;-67
2022/07/05 08:33:21;;;;;;;6.50;6.20;;;;;;;23.19;45.10;102010.31;6004403;23;20078;-67
2022/07/05 08:35:47;;;;;;;5.30;5.10;;;;;;;23.20;44.20;102003.16;5967269;23;20179;-66
2022/07/05 08:38:14;;;;;;;6.45;5.22;;;;;;;23.49;43.88;101998.81;6007042;23;20078;-66
2022/07/05 08:40:45;;;;;;;5.85;5.25;;;;;;;23.04;43.24;102210.63;5962561;23;20228;-70
2022/07/05 08:43:14;;;;;;;5.68;5.30;;;;;;;22.78;43.78;102249.34;5993729;23;20027;-70
2022/07/05 08:45:43;;;;;;;5.30;5.10;;;;;;;23.01;44.25;102224.25;5988488;23;20038;-69
2022/07/05 08:48:10;;;;;;;5.20;5.00;;;;;;;22.87;44.64;102125.44;6001135;23;20870;-68
2022/07/05 08:50:39;;;;;;;5.60;5.30;;;;;;;22.76;45.14;102106.75;5998529;23;20035;-68
2022/07/05 08:53:06;;;;;;;5.78;5.47;;;;;;;22.79;43.35;102074.38;5998788;23;20018;-68
2022/07/05 08:55:33;;;;;;;5.50;5.30;;;;;;;23.22;43.22;102022.63;5991347;23;20115;-68
2022/07/05 08:58:00;;;;;;;5.43;5.22;;;;;;;22.82;43.84;101969.75;5999167;23;20120;-68
2022/07/05 09:00:28;;;;;;;6.93;6.57;;;;;;;23.48;42.86;102009.66;5980281;23;20085;-68
2022/07/05 09:02:56;;;;;;;5.70;5.40;;;;;;;23.31;42.27;101968.25;5990102;23;20254;-65
2022/07/05 09:05:25;;;;;;;6.35;6.05;;;;;;;23.60;42.34;101991.69;6002064;23;20346;-68
2022/07/05 09:07:59;;;;;;;6.10;5.80;;;;;;;23.60;43.60;101992.53;6025837;23;20011;-66
2022/07/05 09:10:28;;;;;;;7.15;6.85;;;;;;;23.35;42.04;101992.94;5997003;23;20219;-66
2022/07/05 09:12:55;;;;;;;5.60;5.38;;;;;;;23.27;43.48;102002.50;6017410;23;20027;-70
2022/07/05 09:15:22;;;;;;;6.35;6.05;;;;;;;23.60;41.46;102005.09;6023999;23;20021;-65
2022/07/05 09:17:49;;;;;;;5.60;5.40;;;;;;;24.13;39.90;102004.88;6021027;23;20040;-66
2022/07/05 09:20:17;;;;;;;5.47;5.20;;;;;;;24.69;40.73;102304.97;6026871;23;20093;-70
2022/07/05 09:22:55;;;;;;;5.50;5.30;;;;;;;24.63;39.91;102273.28;6019887;23;20113;-69
2022/07/05 09:25:28;;;;;;;6.38;6.07;;;;;;;23.97;41.43;102141.31;6014179;23;20187;-69
2022/07/05 09:27:55;;;;;;;;;;;;;;;24.08;40.77;102166.22;5997986;23;20035;-66
2022/07/05 09:30:39;;;;;;;6.80;6.50;;;;;;;24.31;40.40;102071.28;6017955;23;20359;-70
2022/07/05 09:33:09;;;;;;;5.60;5.40;;;;;;;25.17;40.06;102033.97;6021607;23;20018;-70
2022/07/05 09:35:38;;;;;;;6.00;5.70;;;;;;;25.90;37.86;102049.50;6013910;23;20551;-68
2022/07/05 09:38:05;;;;;;;5.60;5.30;;;;;;;26.13;37.34;102083.13;6019886;23;20025;-66
2022/07/05 09:40:33;;;;;;;6.75;6.45;;;;;;;25.28;38.67;102074.16;6012688;23;20109;-66
2022/07/05 09:43:13;;;;;;;5.90;5.60;;;;;;;25.26;39.32;102014.34;6019950;23;20848;-66
2022/07/05 09:45:39;;;;;;;5.80;5.50;;;;;;;24.84;39.88;101991.31;6001122;23;20548;-66
2022/07/05 09:48:09;;;;;;;5.70;5.40;;;;;;;24.46;40.56;102261.31;6021252;23;20015;-66
2022/07/05 09:51:12;;;;;;;5.72;5.45;;;;;;;24.13;41.44;102259.69;6020790;23;20080;-66
2022/07/05 09:54:00;;;;;;;5.60;5.40;;;;;;;23.85;42.29;102235.25;6025000;23;20030;-66
2022/07/05 09:56:43;;;;;;;6.97;6.68;;;;;;;24.24;40.89;102095.16;6016608;23;20019;-68
2022/07/05 09:59:15;;;;;;;5.63;5.32;;;;;;;24.98;41.30;102053.66;6003684;23;20647;-68
2022/07/05 10:01:42;;;;;;;5.70;5.40;;;;;;;24.73;40.61;102020.13;6002680;23;20019;-65
2022/07/05 10:04:09;;;;;;;6.80;6.50;;;;;;;25.19;37.26;102013.16;6019857;23;20019;-66
2022/07/05 10:06:36;;;;;;;5.88;5.57;;;;;;;25.67;36.06;102021.13;5988014;23;20219;-68
2022/07/05 10:09:03;;;;;;;5.40;5.20;;;;;;;26.24;35.45;102039.88;6022096;23;20073;-73
2022/07/05 10:11:30;;;;;;;6.57;6.28;;;;;;;26.27;35.31;102018.03;6016931;23;20084;-70
2022/07/05 10:13:58;;;;;;;5.40;5.20;;;;;;;25.86;35.39;102022.91;6023588;23;20011;-69
2022/07/05 10:16:25;;;;;;;6.10;5.80;;;;;;;25.12;38.42;101966.38;6021207;23;20034;-74
2022/07/05 10:18:55;;;;;;;5.60;5.40;;;;;;;24.91;40.73;102006.84;6020935;23;20031;-67
2022/07/05 10:21:24;;;;;;;6.57;6.28;;;;;;;24.86;40.22;101980.44;6008212;23;20087;-72
2022/07/05 10:23:53;;;;;;;5.30;5.10;;;;;;;24.82;40.50;101989.75;6019208;23;20022;-70
2022/07/05 10:26:21;;;;;;;6.53;6.22;;;;;;;24.99;40.12;102091.09;6002421;23;20089;-68
2022/07/05 10:28:52;;;;;;;5.80;5.50;;;;;;;25.14;40.14;102136.31;6025519;23;20152;-69
2022/07/05 10:31:28;;;;;;;6.85;6.45;;;;;;;24.96;38.92;102136.19;6007558;23;20315;-70
2022/07/05 10:33:56;;;;;;;5.43;5.15;;;;;;;25.13;39.90;102049.50;6016179;23;20031;-72
2022/07/05 10:36:23;;;;;;;6.68;6.38;;;;;;;25.23;39.54;102025.34;6013838;23;20035;-69
2022/07/05 10:38:50;;;;;;;5.97;5.68;;;;;;;24.72;39.17;101997.81;6042026;23;20698;-69
2022/07/05 10:41:24;;;;;;;5.88;5.57;;;;;;;23.97;39.13;101943.72;6004026;23;20039;-69
2022/07/05 10:43:55;;;;;;;5.40;5.20;;;;;;;24.36;39.49;101994.78;6027938;23;20437;-71
2022/07/05 10:46:41;;;;;;;6.90;6.60;;;;;;;24.69;37.25;102004.28;5992283;23;20128;-70
2022/07/05 10:49:11;;;;;;;5.40;5.18;;;;;;;25.04;36.78;101999.34;6026236;23;20117;-73
2022/07/05 10:51:38;;;;;;;5.20;5.00;;;;;;;25.07;37.34;101983.78;6012718;23;20014;-70
2022/07/05 10:54:05;;;;;;;5.60;5.30;;;;;;;25.83;36.21;102009.75;5974512;23;20038;-71
2022/07/05 10:56:31;;;;;;;6.82;6.53;;;;;;;25.39;35.02;102205.69;6023380;23;20117;-71
2022/07/05 10:59:12;;;;;;;5.25;5.05;;;;;;;25.66;34.72;102231.88;5994004;23;20015;-71
2022/07/05 11:01:40;;;;;;;5.90;5.60;;;;;;;26.00;36.10;102156.13;5986573;23;20308;-71
2022/07/05 11:04:15;;;;;;;5.60;5.30;;;;;;;25.35;35.65;102040.31;6024493;23;20072;-72
2022/07/05 11:06:44;;;;;;;5.63;5.38;;;;;;;26.11;35.20;102022.41;5995332;23;20023;-72
2022/07/05 11:09:10;;;;;;;5.70;5.40;;;;;;;25.65;35.20;102000.78;6028722;23;20097;-71
2022/07/05 11:12:01;;;;;;;5.28;5.07;;;;;;;25.93;34.55;102009.75;5991944;23;20015;-71
2022/07/05 11:14:48;;;;;;;5.63;5.43;;;;;;;25.54;36.83;101936.44;6018043;23;20031;-70
2022/07/05 11:17:22;;;;;;;5.43;5.22;;;;;;;25.74;36.36;101990.97;5992972;23;20120;-72
2022/07/05 11:20:16;;;;;;;5.68;5.38;;;;;;;24.79;37.47;101942.53;6015701;23;20007;-71
2022/07/05 11:23:04;;;;;;;5.80;5.50;;;;;;;24.01;37.18;101936.25;6011703;23;21500;-71
2022/07/05 11:25:32;;;;;;;6.80;6.45;;;;;;;24.11;39.09;101949.69;6011827;23;20693;-70
2022/07/05 11:28:17;;;;;;;5.32;5.13;;;;;;;24.53;39.38;102274.25;6019720;23;20036;-70
2022/07/05 11:30:52;;;;;;;5.32;5.13;;;;;;;25.41;37.68;102165.22;6017210;23;20160;-71
2022/07/05 11:33:30;;;;;;;5.80;5.53;;;;;;;25.20;35.75;102041.75;6014718;23;20237;-71
2022/07/05 11:35:59;;;;;;;5.50;5.30;;;;;;;24.42;35.65;101875.31;5996035;23;20668;-72
2022/07/05 11:38:26;;;;;;;6.85;6.55;;;;;;;25.27;34.56;101962.28;6015854;23;20459;-71